American Canyon, California
Current Conditions -  °F | °C
As of 3:54 PM on Wednesday 22 Oct 2014 (Local Time) from KAPC Reporting Station
Clear Clear  
Wind Chill: 73°   Ceiling: Unl
Heat Index: 73°   Visibility: 10mi
Dew Point: 54°   Wind: 10mph
Humidity: 51%   Direction: 200°SSW
Pressure: 30"   Gusts: NA
Location:  38.17°N, 122.25°W
Report Text: KAPC 222254Z AUTO 20009KT 10SM CLR 23/12 A3000 RMK AO2 SLP150 T02280122
Loading
Personal Weather Stations






























Interactive Weather Map
Tropical Storm Tracking
New forecast layout! Learn more

10-Day Weather Forecast

Advertisements
Track Severe Weather on mobile